Time;durP1;ratioP1;P1;durP2;ratioP2;P2;SDS_P1;SDS_P2;PMS_P1;PMS_P2;Temp;Humidity;BMP_temperature;BMP_pressure;BME280_temperature;BME280_humidity;BME280_pressure;Samples;Min_cycle;Max_cycle;Signal;HPM_P1;HPM_P2
2023/03/12 00:00:17;;;;;;;9.43;3.90;;;;;;;;;;4997334;28;20206;-43
2023/03/12 00:03:05;;;;;;;6.60;3.83;;;;;;;;;;4996245;28;20234;-45
2023/03/12 00:05:32;;;;;;;9.13;4.40;;;;;;;;;;4996836;28;20241;-44
2023/03/12 00:07:59;;;;;;;11.30;4.30;;;;;;;;;;4996869;28;20202;-44
2023/03/12 00:10:27;;;;;;;8.77;4.83;;;;;;;;;;4996547;28;20629;-44
2023/03/12 00:12:54;;;;;;;8.40;4.93;;;;;;;;;;4996598;28;20203;-45
2023/03/12 00:15:22;;;;;;;9.10;5.47;;;;;;;;;;4997064;28;20194;-45
2023/03/12 00:17:49;;;;;;;7.47;4.30;;;;;;;;;;4997091;28;20897;-43
2023/03/12 00:20:17;;;;;;;6.93;3.53;;;;;;;;;;4997070;28;20202;-43
2023/03/12 00:22:44;;;;;;;9.27;5.00;;;;;;;;;;4996263;28;20202;-43
2023/03/12 00:25:14;;;;;;;13.77;4.83;;;;;;;;;;4996127;28;20296;-43
2023/03/12 00:27:42;;;;;;;8.57;4.97;;;;;;;;;;4996409;28;20202;-44
2023/03/12 00:30:10;;;;;;;10.83;4.63;;;;;;;;;;4996303;28;20201;-44
2023/03/12 00:32:38;;;;;;;7.30;4.47;;;;;;;;;;4997006;28;20261;-43
2023/03/12 00:35:06;;;;;;;11.43;4.97;;;;;;;;;;4995331;28;20656;-43
2023/03/12 00:37:33;;;;;;;11.07;4.57;;;;;;;;;;4996284;28;20206;-44
2023/03/12 00:40:01;;;;;;;8.53;4.37;;;;;;;;;;4996440;28;20202;-44
2023/03/12 00:42:28;;;;;;;10.47;4.60;;;;;;;;;;4995846;28;20301;-45
2023/03/12 00:44:55;;;;;;;7.87;4.20;;;;;;;;;;4996113;28;20230;-44
2023/03/12 00:47:22;;;;;;;12.93;5.27;;;;;;;;;;4995821;28;20206;-45
2023/03/12 00:49:49;;;;;;;10.50;5.37;;;;;;;;;;4994841;28;20206;-45
2023/03/12 00:52:16;;;;;;;8.43;5.20;;;;;;;;;;4995292;28;20208;-45
2023/03/12 00:54:44;;;;;;;8.73;4.90;;;;;;;;;;4996035;28;20214;-45
2023/03/12 00:57:11;;;;;;;11.50;4.87;;;;;;;;;;4995972;28;20284;-44
2023/03/12 00:59:39;;;;;;;10.73;5.50;;;;;;;;;;4996355;28;20214;-44
2023/03/12 01:02:07;;;;;;;16.47;5.63;;;;;;;;;;4995112;28;20245;-45
2023/03/12 01:04:34;;;;;;;7.63;5.17;;;;;;;;;;4994881;28;20237;-46
2023/03/12 01:07:02;;;;;;;8.17;5.10;;;;;;;;;;4994602;28;20212;-44
2023/03/12 01:09:29;;;;;;;16.70;6.30;;;;;;;;;;4994345;28;20249;-45
2023/03/12 01:11:56;;;;;;;10.63;6.10;;;;;;;;;;4995754;28;20209;-45
2023/03/12 01:14:23;;;;;;;14.10;5.97;;;;;;;;;;4995954;28;20206;-45
2023/03/12 01:16:50;;;;;;;8.27;5.40;;;;;;;;;;4995383;28;20233;-44
2023/03/12 01:19:20;;;;;;;10.33;4.77;;;;;;;;;;4994804;28;20202;-44
2023/03/12 01:21:47;;;;;;;11.87;6.83;;;;;;;;;;4994846;28;20220;-44
2023/03/12 01:24:14;;;;;;;13.57;5.13;;;;;;;;;;4994538;28;20229;-47
2023/03/12 01:26:43;;;;;;;7.13;4.63;;;;;;;;;;4995638;28;20260;-45
2023/03/12 01:29:10;;;;;;;12.90;6.83;;;;;;;;;;4995628;28;20217;-45
2023/03/12 01:31:37;;;;;;;12.83;7.37;;;;;;;;;;4994846;28;20205;-44
2023/03/12 01:34:05;;;;;;;10.57;6.43;;;;;;;;;;4995561;28;20205;-46
2023/03/12 01:36:32;;;;;;;9.83;5.80;;;;;;;;;;4994647;28;20198;-46
2023/03/12 01:39:00;;;;;;;13.57;6.17;;;;;;;;;;4995192;28;20633;-44
2023/03/12 01:41:31;;;;;;;9.13;4.70;;;;;;;;;;4994851;28;20214;-45
2023/03/12 01:44:02;;;;;;;13.77;8.23;;;;;;;;;;4995161;28;20213;-45
2023/03/12 01:46:30;;;;;;;11.63;6.57;;;;;;;;;;4994488;28;20206;-44
2023/03/12 01:49:13;;;;;;;10.70;5.87;;;;;;;;;;4994333;28;20205;-45
2023/03/12 01:51:55;;;;;;;12.30;6.30;;;;;;;;;;4994435;28;20528;-46
2023/03/12 01:54:33;;;;;;;12.23;5.67;;;;;;;;;;4994744;28;20187;-44
2023/03/12 01:57:02;;;;;;;14.27;8.27;;;;;;;;;;4994572;28;20585;-44
2023/03/12 01:59:38;;;;;;;12.30;7.20;;;;;;;;;;4994433;28;20206;-45
2023/03/12 02:02:05;;;;;;;14.37;6.67;;;;;;;;;;4978021;28;20672;-46
2023/03/12 02:04:34;;;;;;;18.87;8.17;;;;;;;;;;4978302;28;20241;-44
2023/03/12 02:07:12;;;;;;;13.43;7.33;;;;;;;;;;4994411;28;20202;-46
2023/03/12 02:09:42;;;;;;;8.87;5.47;;;;;;;;;;4995062;28;20201;-46
2023/03/12 02:12:10;;;;;;;16.67;6.83;;;;;;;;;;4978328;28;20202;-44
2023/03/12 02:14:38;;;;;;;14.50;7.03;;;;;;;;;;4994197;28;20490;-46
2023/03/12 02:17:06;;;;;;;13.80;6.90;;;;;;;;;;4978051;28;20272;-45
2023/03/12 02:19:33;;;;;;;14.97;7.63;;;;;;;;;;4996981;28;20198;-45
2023/03/12 02:22:01;;;;;;;15.30;6.87;;;;;;;;;;4998756;28;20292;-46
2023/03/12 02:24:37;;;;;;;15.90;8.00;;;;;;;;;;4981650;28;20233;-45
2023/03/12 02:27:07;;;;;;;15.87;6.60;;;;;;;;;;4982765;28;20182;-45
2023/03/12 02:29:36;;;;;;;14.07;6.30;;;;;;;;;;4981669;28;20671;-45
2023/03/12 02:32:04;;;;;;;13.47;7.40;;;;;;;;;;4981840;28;20202;-46
2023/03/12 02:34:32;;;;;;;9.13;4.70;;;;;;;;;;4997796;28;20292;-45
2023/03/12 02:36:59;;;;;;;14.80;6.53;;;;;;;;;;4998513;28;20214;-45
2023/03/12 02:39:27;;;;;;;11.77;6.47;;;;;;;;;;4997654;28;20235;-45
2023/03/12 02:41:56;;;;;;;13.77;7.07;;;;;;;;;;4997205;28;20712;-45
2023/03/12 02:44:35;;;;;;;13.23;7.33;;;;;;;;;;4982148;28;20229;-45
2023/03/12 02:47:03;;;;;;;11.67;7.10;;;;;;;;;;4997674;28;20233;-45
2023/03/12 02:49:32;;;;;;;17.90;7.50;;;;;;;;;;4997348;28;20202;-45
2023/03/12 02:52:00;;;;;;;12.27;6.47;;;;;;;;;;4997470;28;20230;-45
2023/03/12 02:54:28;;;;;;;14.40;7.40;;;;;;;;;;4997140;28;20264;-44
2023/03/12 02:56:56;;;;;;;10.87;7.13;;;;;;;;;;4997184;28;20205;-45
2023/03/12 02:59:25;;;;;;;15.60;7.87;;;;;;;;;;4981438;28;20264;-45
2023/03/12 03:01:57;;;;;;;18.80;8.73;;;;;;;;;;4997073;28;20241;-45
2023/03/12 03:04:26;;;;;;;14.90;8.77;;;;;;;;;;4997071;28;20217;-45
2023/03/12 03:06:54;;;;;;;13.67;7.87;;;;;;;;;;4997728;28;20652;-44
2023/03/12 03:09:23;;;;;;;24.73;16.17;;;;;;;;;;4980953;28;20683;-44
2023/03/12 03:11:50;;;;;;;27.87;12.43;;;;;;;;;;4997229;28;20202;-44
2023/03/12 03:14:18;;;;;;;16.53;8.30;;;;;;;;;;4996979;28;20202;-45
2023/03/12 03:16:48;;;;;;;16.67;9.13;;;;;;;;;;4997041;28;20677;-44
2023/03/12 03:19:15;;;;;;;19.77;10.13;;;;;;;;;;4998049;28;20206;-46
2023/03/12 03:21:42;;;;;;;20.90;10.83;;;;;;;;;;4997596;28;20203;-45
2023/03/12 03:24:10;;;;;;;17.53;10.00;;;;;;;;;;4997496;28;20214;-45
2023/03/12 03:26:37;;;;;;;16.13;8.23;;;;;;;;;;4996605;28;20233;-45
2023/03/12 03:29:05;;;;;;;19.33;10.07;;;;;;;;;;4997588;28;20214;-44
2023/03/12 03:31:32;;;;;;;23.30;11.23;;;;;;;;;;4995871;28;20206;-45
2023/03/12 03:34:00;;;;;;;19.57;10.67;;;;;;;;;;4996400;28;20284;-46
2023/03/12 03:36:27;;;;;;;22.97;11.33;;;;;;;;;;4996690;28;20297;-45
2023/03/12 03:39:03;;;;;;;48.70;21.57;;;;;;;;;;4996645;28;20201;-45
2023/03/12 03:41:31;;;;;;;26.33;16.20;;;;;;;;;;4996444;28;20202;-44
2023/03/12 03:43:59;;;;;;;21.33;11.87;;;;;;;;;;4996211;28;20358;-45
2023/03/12 03:46:29;;;;;;;23.47;12.17;;;;;;;;;;4996394;28;20552;-48
2023/03/12 03:49:01;;;;;;;19.67;11.40;;;;;;;;;;4996348;28;20210;-45
2023/03/12 03:51:29;;;;;;;19.07;10.67;;;;;;;;;;4996645;28;20210;-45
2023/03/12 03:54:01;;;;;;;22.20;11.83;;;;;;;;;;4994062;28;20221;-45
2023/03/12 03:56:28;;;;;;;23.17;11.13;;;;;;;;;;4992869;28;20211;-45
2023/03/12 03:58:58;;;;;;;23.23;11.40;;;;;;;;;;4976813;28;20234;-44
2023/03/12 04:01:26;;;;;;;18.07;9.57;;;;;;;;;;4976405;28;20217;-45
2023/03/12 04:03:55;;;;;;;18.77;11.80;;;;;;;;;;4977908;28;20206;-45
2023/03/12 04:06:23;;;;;;;17.47;10.17;;;;;;;;;;4977383;28;20226;-44
2023/03/12 04:08:50;;;;;;;37.77;22.93;;;;;;;;;;4976310;28;20660;-45
2023/03/12 04:11:21;;;;;;;25.80;15.93;;;;;;;;;;4976467;28;20202;-46
2023/03/12 04:13:49;;;;;;;21.30;12.87;;;;;;;;;;4992587;28;20211;-45
2023/03/12 04:16:20;;;;;;;19.10;11.83;;;;;;;;;;4976851;28;20273;-44
2023/03/12 04:18:50;;;;;;;18.80;11.23;;;;;;;;;;4992583;28;20215;-44
2023/03/12 04:21:18;;;;;;;21.20;11.17;;;;;;;;;;4992467;28;20222;-45
2023/03/12 04:23:47;;;;;;;22.40;11.60;;;;;;;;;;4992931;28;20210;-44
2023/03/12 04:26:16;;;;;;;23.57;12.67;;;;;;;;;;4977227;28;20223;-45
2023/03/12 04:28:43;;;;;;;25.50;12.57;;;;;;;;;;4975683;28;20326;-44
2023/03/12 04:31:11;;;;;;;33.33;15.23;;;;;;;;;;4976460;28;20214;-45
2023/03/12 04:33:43;;;;;;;22.30;11.90;;;;;;;;;;4975952;28;20195;-47
2023/03/12 04:36:12;;;;;;;17.77;12.03;;;;;;;;;;4976448;28;20267;-45
2023/03/12 04:38:42;;;;;;;16.80;11.13;;;;;;;;;;4991949;28;20191;-45
2023/03/12 04:41:13;;;;;;;23.80;11.77;;;;;;;;;;4991910;28;20199;-45
2023/03/12 04:43:56;;;;;;;21.47;12.63;;;;;;;;;;4975793;28;20206;-46
2023/03/12 04:46:23;;;;;;;20.67;13.40;;;;;;;;;;4975372;28;20297;-45
2023/03/12 04:48:50;;;;;;;25.73;12.70;;;;;;;;;;4975365;28;20214;-45
2023/03/12 04:51:17;;;;;;;40.80;21.80;;;;;;;;;;4976208;28;20217;-46
2023/03/12 04:53:45;;;;;;;66.90;38.53;;;;;;;;;;4976259;28;20206;-45
2023/03/12 04:56:14;;;;;;;27.80;16.03;;;;;;;;;;4991303;28;20211;-45
2023/03/12 04:58:44;;;;;;;20.23;12.03;;;;;;;;;;4975434;28;20203;-45
2023/03/12 05:01:26;;;;;;;22.37;12.03;;;;;;;;;;5007674;28;20747;-46
2023/03/12 05:03:53;;;;;;;20.70;10.87;;;;;;;;;;5007586;28;20222;-45
2023/03/12 05:06:22;;;;;;;23.20;12.83;;;;;;;;;;4976037;28;20236;-46
2023/03/12 05:08:50;;;;;;;21.43;12.07;;;;;;;;;;4991443;28;20207;-45
2023/03/12 05:11:17;;;;;;;21.33;11.73;;;;;;;;;;4975360;28;20214;-45
2023/03/12 05:13:45;;;;;;;26.07;13.00;;;;;;;;;;5000403;28;20205;-47
2023/03/12 05:16:12;;;;;;;24.07;13.47;;;;;;;;;;5014265;28;20300;-45
2023/03/12 05:18:41;;;;;;;22.60;12.27;;;;;;;;;;5014811;28;20653;-46
2023/03/12 05:21:12;;;;;;;24.30;11.90;;;;;;;;;;5014224;28;20208;-46
2023/03/12 05:23:41;;;;;;;25.20;13.07;;;;;;;;;;5015314;28;20213;-45
2023/03/12 05:26:19;;;;;;;21.87;12.83;;;;;;;;;;5014543;28;20221;-45
2023/03/12 05:28:47;;;;;;;22.37;12.07;;;;;;;;;;5014386;28;20208;-45
2023/03/12 05:31:15;;;;;;;23.37;13.00;;;;;;;;;;5014316;28;20215;-46
2023/03/12 05:33:44;;;;;;;24.77;13.20;;;;;;;;;;5009645;28;20202;-45
2023/03/12 05:36:12;;;;;;;25.23;15.43;;;;;;;;;;4999588;28;20292;-45
2023/03/12 05:38:41;;;;;;;23.33;14.10;;;;;;;;;;4985216;28;20229;-47
2023/03/12 05:41:23;;;;;;;29.17;17.40;;;;;;;;;;4983798;28;20213;-45
2023/03/12 05:43:55;;;;;;;28.63;16.43;;;;;;;;;;4993165;28;20202;-44
2023/03/12 05:46:26;;;;;;;24.00;13.87;;;;;;;;;;4992929;28;20224;-45
2023/03/12 05:48:53;;;;;;;24.83;14.93;;;;;;;;;;5008033;28;20191;-45
2023/03/12 05:51:21;;;;;;;26.77;15.37;;;;;;;;;;4984919;28;20197;-46
2023/03/12 05:53:49;;;;;;;28.03;14.33;;;;;;;;;;4983322;28;20638;-46
2023/03/12 05:56:16;;;;;;;23.93;13.60;;;;;;;;;;4986889;28;20224;-45
2023/03/12 05:58:48;;;;;;;29.00;14.57;;;;;;;;;;4988154;28;20212;-46
2023/03/12 06:01:20;;;;;;;30.03;15.03;;;;;;;;;;4985547;28;20277;-45
2023/03/12 06:03:48;;;;;;;30.50;16.93;;;;;;;;;;4987969;28;20816;-45
2023/03/12 06:06:16;;;;;;;27.43;15.07;;;;;;;;;;4988342;28;20222;-46
2023/03/12 06:08:44;;;;;;;25.37;13.77;;;;;;;;;;4986204;28;20221;-45
2023/03/12 06:11:11;;;;;;;27.67;16.23;;;;;;;;;;4986326;28;20202;-46
2023/03/12 06:13:39;;;;;;;22.43;12.13;;;;;;;;;;4987277;28;20923;-46
2023/03/12 06:16:10;;;;;;;25.13;14.33;;;;;;;;;;4988671;28;20265;-45
2023/03/12 06:18:37;;;;;;;27.20;14.40;;;;;;;;;;4987707;28;20198;-45
2023/03/12 06:21:17;;;;;;;25.80;15.17;;;;;;;;;;4985804;28;20207;-45
2023/03/12 06:23:46;;;;;;;30.53;15.77;;;;;;;;;;4985808;28;20591;-46
2023/03/12 06:26:19;;;;;;;27.20;15.17;;;;;;;;;;4986015;28;20283;-46
2023/03/12 06:28:47;;;;;;;24.07;14.20;;;;;;;;;;4988852;28;20633;-45
2023/03/12 06:31:15;;;;;;;22.27;14.07;;;;;;;;;;5003040;28;20210;-47
2023/03/12 06:33:42;;;;;;;21.93;12.97;;;;;;;;;;5002640;28;20203;-44
2023/03/12 06:36:10;;;;;;;31.17;15.93;;;;;;;;;;4997556;28;20780;-46
2023/03/12 06:38:37;;;;;;;27.23;14.43;;;;;;;;;;4999460;28;20227;-51
2023/03/12 06:41:06;;;;;;;27.60;14.47;;;;;;;;;;5008437;28;20222;-46
2023/03/12 06:43:34;;;;;;;41.83;20.50;;;;;;;;;;5008022;28;20233;-49
2023/03/12 06:46:03;;;;;;;26.27;16.53;;;;;;;;;;4991106;28;20229;-45
2023/03/12 06:48:40;;;;;;;31.50;20.43;;;;;;;;;;4988409;28;20252;-46
2023/03/12 06:51:09;;;;;;;32.30;17.57;;;;;;;;;;4988283;28;20217;-46
2023/03/12 06:53:37;;;;;;;25.60;15.23;;;;;;;;;;4977704;28;20239;-46
2023/03/12 06:56:09;;;;;;;26.47;15.57;;;;;;;;;;4977900;28;20223;-45
2023/03/12 06:58:36;;;;;;;26.53;14.03;;;;;;;;;;4977589;28;20226;-45
2023/03/12 07:01:04;;;;;;;24.00;14.93;;;;;;;;;;4977343;28;20251;-45
2023/03/12 07:03:31;;;;;;;26.83;15.43;;;;;;;;;;4977279;28;20258;-45
2023/03/12 07:05:59;;;;;;;25.33;14.80;;;;;;;;;;4976175;28;20238;-46
2023/03/12 07:08:30;;;;;;;26.73;15.33;;;;;;;;;;4980317;28;20310;-45
2023/03/12 07:10:59;;;;;;;34.03;18.13;;;;;;;;;;5016937;28;20312;-45
2023/03/12 07:13:28;;;;;;;28.93;17.90;;;;;;;;;;5016953;28;20648;-45
2023/03/12 07:15:56;;;;;;;26.93;16.00;;;;;;;;;;5016226;28;20244;-47
2023/03/12 07:18:24;;;;;;;28.53;15.53;;;;;;;;;;5016318;28;20292;-44
2023/03/12 07:20:51;;;;;;;28.40;16.73;;;;;;;;;;5016077;28;20259;-44
2023/03/12 07:23:20;;;;;;;27.47;18.87;;;;;;;;;;5016754;28;20308;-45
2023/03/12 07:25:47;;;;;;;27.03;16.93;;;;;;;;;;5012263;28;20342;-45
2023/03/12 07:28:16;;;;;;;29.90;15.43;;;;;;;;;;5007614;28;20245;-47
2023/03/12 07:30:49;;;;;;;27.20;15.63;;;;;;;;;;5015988;28;20241;-44
2023/03/12 07:33:19;;;;;;;28.33;16.57;;;;;;;;;;5015817;28;20225;-45
2023/03/12 07:35:47;;;;;;;30.53;16.87;;;;;;;;;;5015954;28;20332;-45
2023/03/12 07:38:18;;;;;;;27.20;16.90;;;;;;;;;;5016523;28;20225;-46
2023/03/12 07:40:53;;;;;;;26.40;15.97;;;;;;;;;;5015933;28;20676;-44
2023/03/12 07:43:22;;;;;;;39.70;19.53;;;;;;;;;;5016065;28;20225;-44
2023/03/12 07:45:53;;;;;;;27.40;16.33;;;;;;;;;;5015680;28;20842;-44
2023/03/12 07:48:20;;;;;;;20.20;14.43;;;;;;;;;;5015559;28;20240;-45
2023/03/12 07:50:48;;;;;;;40.33;23.93;;;;;;;;;;5003507;28;20254;-45
2023/03/12 07:53:16;;;;;;;49.07;29.37;;;;;;;;;;5004955;28;20221;-45
2023/03/12 07:55:44;;;;;;;25.70;15.90;;;;;;;;;;4989926;28;20232;-46
2023/03/12 07:58:15;;;;;;;26.47;16.13;;;;;;;;;;4989381;28;20230;-47
2023/03/12 08:00:42;;;;;;;29.00;15.87;;;;;;;;;;4995047;28;20288;-46
2023/03/12 08:03:11;;;;;;;22.77;15.33;;;;;;;;;;4995570;28;20300;-46
2023/03/12 08:05:39;;;;;;;26.23;16.53;;;;;;;;;;4995276;28;20237;-47
2023/03/12 08:08:07;;;;;;;28.83;16.27;;;;;;;;;;4995513;28;20237;-46
2023/03/12 08:10:35;;;;;;;28.27;17.30;;;;;;;;;;4995517;28;20233;-46
2023/03/12 08:13:03;;;;;;;34.10;16.90;;;;;;;;;;4995846;28;20286;-46
2023/03/12 08:15:30;;;;;;;25.40;16.43;;;;;;;;;;4995470;28;20296;-46
2023/03/12 08:17:58;;;;;;;23.63;15.53;;;;;;;;;;4994618;28;20253;-46
2023/03/12 08:20:25;;;;;;;23.07;14.53;;;;;;;;;;4995128;28;20234;-46
2023/03/12 08:22:53;;;;;;;26.33;15.93;;;;;;;;;;4995438;28;20238;-47
2023/03/12 08:25:23;;;;;;;22.83;14.23;;;;;;;;;;4994534;28;20284;-49
2023/03/12 08:27:50;;;;;;;23.93;14.53;;;;;;;;;;4995336;28;20242;-46
2023/03/12 08:30:18;;;;;;;28.80;14.93;;;;;;;;;;4995150;28;20249;-46
2023/03/12 08:32:45;;;;;;;23.03;14.37;;;;;;;;;;4995533;28;20245;-46
2023/03/12 08:35:12;;;;;;;42.33;26.73;;;;;;;;;;4995092;28;20230;-49
2023/03/12 08:37:40;;;;;;;22.63;15.53;;;;;;;;;;4994774;28;20696;-46
2023/03/12 08:40:17;;;;;;;20.73;11.43;;;;;;;;;;4995513;28;20237;-46
2023/03/12 08:42:45;;;;;;;18.03;11.13;;;;;;;;;;4995550;28;20715;-46
2023/03/12 08:45:13;;;;;;;17.17;9.57;;;;;;;;;;4996160;28;20210;-46
2023/03/12 08:47:42;;;;;;;20.60;9.97;;;;;;;;;;4995312;28;20254;-46
2023/03/12 08:50:11;;;;;;;16.47;9.87;;;;;;;;;;4995685;28;20529;-46
2023/03/12 08:52:39;;;;;;;20.53;9.73;;;;;;;;;;5012500;28;20535;-46
2023/03/12 08:55:07;;;;;;;13.77;8.03;;;;;;;;;;5015272;28;20201;-45
2023/03/12 08:57:34;;;;;;;14.27;9.53;;;;;;;;;;5015164;28;20210;-45
2023/03/12 09:00:04;;;;;;;12.93;7.63;;;;;;;;;;5014858;28;20205;-46
2023/03/12 09:02:32;;;;;;;16.27;8.20;;;;;;;;;;5014839;28;20294;-47
2023/03/12 09:04:59;;;;;;;12.17;7.17;;;;;;;;;;5015337;28;20293;-45
2023/03/12 09:07:27;;;;;;;10.33;6.70;;;;;;;;;;5014618;28;20229;-47
2023/03/12 09:09:54;;;;;;;11.77;6.30;;;;;;;;;;5015067;28;20275;-45
2023/03/12 09:12:22;;;;;;;16.60;10.00;;;;;;;;;;5015132;28;20216;-48
2023/03/12 09:14:50;;;;;;;12.57;6.50;;;;;;;;;;5014925;28;20264;-45
2023/03/12 09:17:33;;;;;;;14.27;7.30;;;;;;;;;;5014694;28;20193;-46
2023/03/12 09:20:00;;;;;;;14.93;7.20;;;;;;;;;;5014463;28;20205;-47
2023/03/12 09:22:29;;;;;;;11.07;6.00;;;;;;;;;;5015118;28;20212;-46
2023/03/12 09:24:56;;;;;;;13.30;7.07;;;;;;;;;;5014684;28;20236;-46
2023/03/12 09:27:24;;;;;;;19.20;8.03;;;;;;;;;;5005638;28;20221;-49
2023/03/12 09:29:53;;;;;;;13.67;6.87;;;;;;;;;;4993986;28;20252;-45
2023/03/12 09:32:27;;;;;;;14.90;8.03;;;;;;;;;;4989182;28;20206;-46
2023/03/12 09:34:55;;;;;;;9.27;5.83;;;;;;;;;;4977640;28;20733;-45
2023/03/12 09:37:22;;;;;;;13.80;7.50;;;;;;;;;;4975397;28;20285;-52
2023/03/12 09:39:51;;;;;;;19.37;7.90;;;;;;;;;;4975370;28;20206;-46
2023/03/12 09:42:23;;;;;;;8.07;5.87;;;;;;;;;;4975605;28;20206;-46
2023/03/12 09:44:52;;;;;;;11.97;6.93;;;;;;;;;;4975852;28;20301;-48
2023/03/12 09:47:29;;;;;;;14.83;6.77;;;;;;;;;;4975504;28;20226;-46
2023/03/12 09:50:02;;;;;;;6.70;4.73;;;;;;;;;;4974360;28;20253;-48
2023/03/12 09:52:41;;;;;;;8.37;5.10;;;;;;;;;;4975663;28;20209;-48
2023/03/12 09:55:14;;;;;;;2.97;2.60;;;;;;;;;;4975419;28;20649;-46
2023/03/12 09:57:43;;;;;;;7.13;2.53;;;;;;;;;;4974474;28;20218;-45
2023/03/12 10:00:12;;;;;;;8.50;3.50;;;;;;;;;;4974118;28;20245;-46
2023/03/12 10:02:49;;;;;;;4.57;2.17;;;;;;;;;;4973367;28;20293;-45
2023/03/12 10:05:23;;;;;;;2.40;1.70;;;;;;;;;;4993905;28;20217;-44
2023/03/12 10:07:57;;;;;;;8.87;4.27;;;;;;;;;;4993129;28;20579;-45
2023/03/12 10:10:31;;;;;;;9.63;5.33;;;;;;;;;;4993422;28;20284;-46
2023/03/12 10:13:31;;;;;;;5.40;3.43;;;;;;;;;;4993623;28;20307;-45
2023/03/12 10:16:04;;;;;;;9.23;4.10;;;;;;;;;;5001921;28;20310;-45
2023/03/12 10:18:57;;;;;;;6.67;4.03;;;;;;;;;;4993139;28;20229;-48
2023/03/12 10:22:03;;;;;;;8.23;4.70;;;;;;;;;;4993697;28;20237;-47
2023/03/12 10:24:56;;;;;;;11.20;4.20;;;;;;;;;;5003777;28;20542;-46
2023/03/12 10:27:28;;;;;;;5.40;3.33;;;;;;;;;;5011353;28;20237;-52
2023/03/12 10:29:56;;;;;;;4.70;2.70;;;;;;;;;;5012785;28;20229;-46
2023/03/12 10:32:34;;;;;;;5.03;2.90;;;;;;;;;;5012878;28;20236;-46
2023/03/12 10:35:12;;;;;;;3.53;2.33;;;;;;;;;;4996739;28;20248;-47
2023/03/12 10:37:52;;;;;;;6.47;3.23;;;;;;;;;;5001785;28;20233;-49
2023/03/12 10:40:23;;;;;;;3.23;2.67;;;;;;;;;;5046100;28;20240;-47
2023/03/12 10:42:51;;;;;;;5.73;3.13;;;;;;;;;;5016709;28;20679;-46
2023/03/12 10:45:34;;;;;;;7.03;3.20;;;;;;;;;;5017011;28;20221;-47
2023/03/12 10:48:07;;;;;;;4.57;2.40;;;;;;;;;;5011804;28;20237;-47
2023/03/12 10:50:36;;;;;;;2.43;2.10;;;;;;;;;;5006991;28;20225;-52
2023/03/12 10:53:22;;;;;;;5.23;2.10;;;;;;;;;;4999515;28;20242;-49
2023/03/12 10:55:58;;;;;;;3.50;2.50;;;;;;;;;;4994677;28;20237;-47
2023/03/12 10:58:30;;;;;;;5.37;3.27;;;;;;;;;;4995424;28;20291;-46
2023/03/12 11:01:00;;;;;;;4.27;2.30;;;;;;;;;;4995733;28;20233;-46
2023/03/12 11:03:28;;;;;;;4.70;3.00;;;;;;;;;;4995310;28;20273;-47
2023/03/12 11:06:01;;;;;;;7.17;3.13;;;;;;;;;;4996347;28;20627;-46
2023/03/12 11:08:32;;;;;;;4.63;2.43;;;;;;;;;;4996670;28;20222;-49
2023/03/12 11:11:01;;;;;;;3.10;2.43;;;;;;;;;;4996151;28;20691;-48
2023/03/12 11:13:36;;;;;;;5.83;2.90;;;;;;;;;;5004935;28;20230;-46
2023/03/12 11:16:16;;;;;;;6.07;2.57;;;;;;;;;;5001434;28;20225;-47
2023/03/12 11:19:00;;;;;;;7.50;3.27;;;;;;;;;;4993959;28;20231;-51
2023/03/12 11:21:30;;;;;;;8.57;3.70;;;;;;;;;;5002499;28;20279;-47
2023/03/12 11:23:57;;;;;;;8.87;3.43;;;;;;;;;;4997634;28;20621;-47
2023/03/12 11:26:30;;;;;;;7.17;3.77;;;;;;;;;;4994464;28;20253;-47
2023/03/12 11:29:02;;;;;;;14.03;3.90;;;;;;;;;;4994203;28;20236;-47
2023/03/12 11:31:38;;;;;;;5.37;2.97;;;;;;;;;;4995411;28;20229;-46
2023/03/12 11:34:27;;;;;;;13.93;5.63;;;;;;;;;;4995387;28;20699;-47
2023/03/12 11:37:12;;;;;;;6.90;2.87;;;;;;;;;;4993133;28;20233;-47
2023/03/12 11:40:16;;;;;;;11.23;3.30;;;;;;;;;;4994595;28;20575;-47
2023/03/12 11:42:52;;;;;;;6.20;3.00;;;;;;;;;;4955428;28;20223;-46
2023/03/12 11:45:32;;;;;;;15.23;5.93;;;;;;;;;;4972984;28;20313;-47
2023/03/12 11:48:05;;;;;;;7.93;3.63;;;;;;;;;;4939863;28;20681;-48
2023/03/12 11:50:54;;;;;;;6.83;3.00;;;;;;;;;;4955271;28;20266;-46
2023/03/12 11:53:46;;;;;;;13.07;11.50;;;;;;;;;;4955676;28;20235;-48
2023/03/12 11:56:20;;;;;;;10.20;4.73;;;;;;;;;;4955164;28;20231;-50
2023/03/12 11:58:56;;;;;;;10.63;4.60;;;;;;;;;;4939733;29;20249;-50
2023/03/12 12:02:08;;;;;;;13.37;4.17;;;;;;;;;;4954835;28;20235;-46
2023/03/12 12:04:57;;;;;;;21.60;4.10;;;;;;;;;;4943303;28;20239;-48
2023/03/12 12:07:27;;;;;;;12.40;3.87;;;;;;;;;;4949775;28;20235;-50
2023/03/12 12:10:12;;;;;;;13.63;4.17;;;;;;;;;;4954981;28;20349;-45
2023/03/12 12:12:58;;;;;;;11.40;4.67;;;;;;;;;;4955228;28;20606;-47
2023/03/12 12:16:16;;;;;;;17.40;6.23;;;;;;;;;;4952738;28;20305;-46
2023/03/12 12:19:17;;;;;;;9.63;3.43;;;;;;;;;;4943929;28;20245;-48
2023/03/12 12:22:00;;;;;;;10.93;3.77;;;;;;;;;;4989555;28;20230;-47
2023/03/12 12:24:58;;;;;;;32.47;10.00;;;;;;;;;;4982646;28;20665;-47
2023/03/12 12:27:28;;;;;;;20.27;6.23;;;;;;;;;;4976088;28;20573;-48
2023/03/12 12:30:09;;;;;;;25.63;4.93;;;;;;;;;;4975680;28;20227;-48
2023/03/12 12:32:55;;;;;;;9.93;3.57;;;;;;;;;;4996592;28;20272;-46
2023/03/12 12:35:40;;;;;;;10.00;3.10;;;;;;;;;;4995273;28;20676;-46
2023/03/12 12:38:28;;;;;;;9.03;3.20;;;;;;;;;;4989672;28;20218;-46
2023/03/12 12:41:15;;;;;;;17.80;5.17;;;;;;;;;;4959534;28;20309;-47
2023/03/12 12:43:48;;;;;;;17.30;5.43;;;;;;;;;;4985050;28;20249;-45
2023/03/12 12:46:23;;;;;;;9.97;4.17;;;;;;;;;;4994942;28;20249;-46
2023/03/12 12:49:05;;;;;;;7.20;2.80;;;;;;;;;;4983608;28;20692;-46
2023/03/12 12:51:35;;;;;;;4.27;2.43;;;;;;;;;;4975100;28;20372;-47
2023/03/12 12:54:46;;;;;;;17.03;5.03;;;;;;;;;;4975170;28;20568;-45
2023/03/12 12:57:24;;;;;;;13.50;5.80;;;;;;;;;;4954616;28;20297;-46
2023/03/12 13:00:05;;;;;;;8.17;4.67;;;;;;;;;;4972485;28;20241;-47
2023/03/12 13:02:33;;;;;;;5.47;3.20;;;;;;;;;;4990478;28;20235;-46
2023/03/12 13:05:01;;;;;;;9.80;3.10;;;;;;;;;;4989334;28;20218;-46
2023/03/12 13:07:32;;;;;;;5.70;2.67;;;;;;;;;;4994762;28;20261;-47
2023/03/12 13:10:06;;;;;;;7.10;3.37;;;;;;;;;;4995423;28;20240;-47
2023/03/12 13:12:55;;;;;;;7.83;3.17;;;;;;;;;;4985504;28;20226;-51
2023/03/12 13:15:29;;;;;;;5.67;3.27;;;;;;;;;;4984735;28;20645;-47
2023/03/12 13:18:18;;;;;;;9.77;4.40;;;;;;;;;;4994411;28;20222;-48
2023/03/12 13:21:04;;;;;;;14.03;4.90;;;;;;;;;;4985264;28;20685;-46
2023/03/12 13:23:57;;;;;;;13.13;4.57;;;;;;;;;;4988042;28;20280;-47
2023/03/12 13:26:34;;;;;;;16.77;5.63;;;;;;;;;;4991626;28;20238;-47
2023/03/12 13:29:30;;;;;;;19.83;7.83;;;;;;;;;;4996345;28;20646;-46
2023/03/12 13:31:57;;;;;;;8.13;2.77;;;;;;;;;;4993251;28;20222;-46
2023/03/12 13:34:41;;;;;;;13.20;4.50;;;;;;;;;;4993701;28;20225;-46
2023/03/12 13:37:26;;;;;;;12.67;4.43;;;;;;;;;;4981879;28;20226;-45
2023/03/12 13:39:53;;;;;;;8.37;3.77;;;;;;;;;;4986277;28;20239;-46
2023/03/12 13:42:24;;;;;;;15.33;4.23;;;;;;;;;;4994430;28;20695;-45
2023/03/12 13:44:52;;;;;;;9.13;2.97;;;;;;;;;;4993775;28;20644;-48
2023/03/12 13:47:30;;;;;;;7.03;3.10;;;;;;;;;;4993865;28;20226;-46
2023/03/12 13:49:58;;;;;;;5.70;2.60;;;;;;;;;;4974908;28;20218;-47
2023/03/12 13:52:38;;;;;;;7.33;3.17;;;;;;;;;;4974999;28;20242;-46
2023/03/12 13:55:12;;;;;;;5.30;2.63;;;;;;;;;;4974896;28;20226;-47
2023/03/12 13:57:55;;;;;;;15.53;4.00;;;;;;;;;;4974640;28;20230;-47
2023/03/12 14:00:35;;;;;;;6.97;2.90;;;;;;;;;;4974383;28;20669;-45
2023/03/12 14:03:08;;;;;;;6.43;2.33;;;;;;;;;;4973676;28;20780;-45
2023/03/12 14:05:44;;;;;;;9.37;2.33;;;;;;;;;;4974597;28;20226;-47
2023/03/12 14:08:50;;;;;;;5.13;2.30;;;;;;;;;;4974801;28;20693;-47
2023/03/12 14:11:43;;;;;;;7.80;2.80;;;;;;;;;;4934088;29;20227;-46
2023/03/12 14:14:28;;;;;;;6.10;2.73;;;;;;;;;;4973809;28;20222;-48
2023/03/12 14:17:04;;;;;;;9.40;2.97;;;;;;;;;;4978049;28;20230;-49
2023/03/12 14:19:33;;;;;;;11.80;4.03;;;;;;;;;;4993495;28;20241;-47
2023/03/12 14:22:04;;;;;;;11.20;3.73;;;;;;;;;;4997942;28;20228;-46
2023/03/12 14:24:34;;;;;;;12.27;4.50;;;;;;;;;;4998080;28;20229;-50
2023/03/12 14:27:04;;;;;;;13.17;5.30;;;;;;;;;;4996811;28;20226;-47
2023/03/12 14:29:38;;;;;;;7.27;2.57;;;;;;;;;;4997571;28;20237;-48
2023/03/12 14:32:14;;;;;;;5.63;2.40;;;;;;;;;;4996708;28;20226;-47
2023/03/12 14:34:44;;;;;;;10.20;3.07;;;;;;;;;;4996949;28;20356;-47
2023/03/12 14:37:26;;;;;;;10.63;3.87;;;;;;;;;;5012113;28;20317;-47
2023/03/12 14:40:03;;;;;;;11.03;4.10;;;;;;;;;;5016699;28;20221;-49
2023/03/12 14:42:34;;;;;;;12.30;3.50;;;;;;;;;;5016162;28;20283;-51
2023/03/12 14:45:05;;;;;;;9.73;3.13;;;;;;;;;;5016309;28;20221;-47
2023/03/12 14:47:43;;;;;;;8.30;3.07;;;;;;;;;;5016406;28;20231;-49
2023/03/12 14:50:22;;;;;;;9.13;3.13;;;;;;;;;;4988055;28;20253;-48
2023/03/12 14:52:50;;;;;;;9.27;3.30;;;;;;;;;;4977314;28;20226;-46
2023/03/12 14:55:21;;;;;;;4.70;2.33;;;;;;;;;;4976863;28;20226;-47
2023/03/12 14:57:49;;;;;;;3.70;2.00;;;;;;;;;;4989384;28;20229;-47